sensor_id;sensor_type;location;lat;lon;timestamp;P1;durP1;ratioP1;P2;durP2;ratioP2
21438;SDS011;10880;50.302;18.736;2022-08-19T00:01:55;2.92;;;2.65;;
21438;SDS011;10880;50.302;18.736;2022-08-19T00:04:24;2.13;;;1.92;;
21438;SDS011;10880;50.302;18.736;2022-08-19T00:06:56;2.53;;;2.33;;
21438;SDS011;10880;50.302;18.736;2022-08-19T00:09:28;2.58;;;2.22;;
21438;SDS011;10880;50.302;18.736;2022-08-19T00:11:55;2.30;;;2.10;;
21438;SDS011;10880;50.302;18.736;2022-08-19T00:14:22;2.33;;;2.13;;
21438;SDS011;10880;50.302;18.736;2022-08-19T00:16:51;2.25;;;2.05;;
21438;SDS011;10880;50.302;18.736;2022-08-19T00:19:24;2.30;;;2.10;;
21438;SDS011;10880;50.302;18.736;2022-08-19T00:21:50;2.30;;;2.10;;
21438;SDS011;10880;50.302;18.736;2022-08-19T00:24:17;2.53;;;2.25;;
21438;SDS011;10880;50.302;18.736;2022-08-19T00:26:44;2.50;;;2.30;;
21438;SDS011;10880;50.302;18.736;2022-08-19T00:29:12;2.38;;;2.17;;
21438;SDS011;10880;50.302;18.736;2022-08-19T00:31:41;2.40;;;2.20;;
21438;SDS011;10880;50.302;18.736;2022-08-19T00:34:08;2.45;;;2.25;;
21438;SDS011;10880;50.302;18.736;2022-08-19T00:36:36;2.97;;;2.67;;
21438;SDS011;10880;50.302;18.736;2022-08-19T00:39:03;2.40;;;2.20;;
21438;SDS011;10880;50.302;18.736;2022-08-19T00:41:30;2.88;;;2.40;;
21438;SDS011;10880;50.302;18.736;2022-08-19T00:46:39;2.30;;;2.10;;
21438;SDS011;10880;50.302;18.736;2022-08-19T00:49:10;2.58;;;2.20;;
21438;SDS011;10880;50.302;18.736;2022-08-19T00:51:40;2.35;;;2.15;;
21438;SDS011;10880;50.302;18.736;2022-08-19T00:54:10;2.35;;;2.15;;
21438;SDS011;10880;50.302;18.736;2022-08-19T00:56:37;2.58;;;2.30;;
21438;SDS011;10880;50.302;18.736;2022-08-19T00:59:05;2.60;;;2.40;;
21438;SDS011;10880;50.302;18.736;2022-08-19T01:01:38;3.20;;;2.40;;
21438;SDS011;10880;50.302;18.736;2022-08-19T01:04:06;2.50;;;2.30;;
21438;SDS011;10880;50.302;18.736;2022-08-19T01:06:33;2.40;;;2.20;;
21438;SDS011;10880;50.302;18.736;2022-08-19T01:09:02;3.63;;;2.33;;
21438;SDS011;10880;50.302;18.736;2022-08-19T01:11:32;2.80;;;2.60;;
21438;SDS011;10880;50.302;18.736;2022-08-19T01:14:01;3.05;;;2.50;;
21438;SDS011;10880;50.302;18.736;2022-08-19T01:16:30;2.42;;;2.22;;
21438;SDS011;10880;50.302;18.736;2022-08-19T01:18:58;2.40;;;2.20;;
21438;SDS011;10880;50.302;18.736;2022-08-19T01:21:29;2.50;;;2.22;;
21438;SDS011;10880;50.302;18.736;2022-08-19T01:24:00;2.33;;;2.13;;
21438;SDS011;10880;50.302;18.736;2022-08-19T01:26:27;2.50;;;2.30;;
21438;SDS011;10880;50.302;18.736;2022-08-19T01:28:56;2.92;;;2.63;;
21438;SDS011;10880;50.302;18.736;2022-08-19T01:33:57;2.78;;;2.58;;
21438;SDS011;10880;50.302;18.736;2022-08-19T01:36:27;2.65;;;2.45;;
21438;SDS011;10880;50.302;18.736;2022-08-19T01:39:01;2.80;;;2.47;;
21438;SDS011;10880;50.302;18.736;2022-08-19T01:41:30;3.22;;;2.45;;
21438;SDS011;10880;50.302;18.736;2022-08-19T01:43:56;2.50;;;2.30;;
21438;SDS011;10880;50.302;18.736;2022-08-19T01:46:24;2.70;;;2.50;;
21438;SDS011;10880;50.302;18.736;2022-08-19T01:48:50;2.65;;;2.45;;
21438;SDS011;10880;50.302;18.736;2022-08-19T01:51:17;2.75;;;2.50;;
21438;SDS011;10880;50.302;18.736;2022-08-19T01:53:46;2.75;;;2.55;;
21438;SDS011;10880;50.302;18.736;2022-08-19T01:56:14;2.63;;;2.35;;
21438;SDS011;10880;50.302;18.736;2022-08-19T01:58:43;2.65;;;2.45;;
21438;SDS011;10880;50.302;18.736;2022-08-19T02:01:17;2.75;;;2.55;;
21438;SDS011;10880;50.302;18.736;2022-08-19T02:03:44;3.53;;;2.80;;
21438;SDS011;10880;50.302;18.736;2022-08-19T02:06:11;2.60;;;2.40;;
21438;SDS011;10880;50.302;18.736;2022-08-19T02:08:39;2.85;;;2.50;;
21438;SDS011;10880;50.302;18.736;2022-08-19T02:11:06;2.88;;;2.30;;
21438;SDS011;10880;50.302;18.736;2022-08-19T02:13:33;3.15;;;2.72;;
21438;SDS011;10880;50.302;18.736;2022-08-19T02:18:30;2.60;;;2.40;;
21438;SDS011;10880;50.302;18.736;2022-08-19T02:20:57;2.80;;;2.60;;
21438;SDS011;10880;50.302;18.736;2022-08-19T02:23:27;2.50;;;2.30;;
21438;SDS011;10880;50.302;18.736;2022-08-19T02:25:53;3.30;;;2.60;;
21438;SDS011;10880;50.302;18.736;2022-08-19T02:28:25;2.70;;;2.50;;
21438;SDS011;10880;50.302;18.736;2022-08-19T02:30:52;3.08;;;2.70;;
21438;SDS011;10880;50.302;18.736;2022-08-19T02:33:18;2.80;;;2.60;;
21438;SDS011;10880;50.302;18.736;2022-08-19T02:35:49;2.75;;;2.55;;
21438;SDS011;10880;50.302;18.736;2022-08-19T02:38:16;3.05;;;2.40;;
21438;SDS011;10880;50.302;18.736;2022-08-19T02:40:53;2.85;;;2.40;;
21438;SDS011;10880;50.302;18.736;2022-08-19T02:43:22;3.83;;;2.92;;
21438;SDS011;10880;50.302;18.736;2022-08-19T02:45:49;3.03;;;2.60;;
21438;SDS011;10880;50.302;18.736;2022-08-19T02:48:18;2.97;;;2.63;;
21438;SDS011;10880;50.302;18.736;2022-08-19T02:50:47;3.83;;;2.50;;
21438;SDS011;10880;50.302;18.736;2022-08-19T02:53:23;2.53;;;2.33;;
21438;SDS011;10880;50.302;18.736;2022-08-19T02:56:06;2.78;;;2.58;;
21438;SDS011;10880;50.302;18.736;2022-08-19T02:58:33;2.65;;;2.45;;
21438;SDS011;10880;50.302;18.736;2022-08-19T03:01:00;2.85;;;2.65;;
21438;SDS011;10880;50.302;18.736;2022-08-19T03:03:27;2.67;;;2.47;;
21438;SDS011;10880;50.302;18.736;2022-08-19T03:06:10;3.00;;;2.70;;
21438;SDS011;10880;50.302;18.736;2022-08-19T03:08:39;2.85;;;2.53;;
21438;SDS011;10880;50.302;18.736;2022-08-19T03:11:18;3.00;;;2.78;;
21438;SDS011;10880;50.302;18.736;2022-08-19T03:13:47;2.75;;;2.50;;
21438;SDS011;10880;50.302;18.736;2022-08-19T03:16:20;3.10;;;2.65;;
21438;SDS011;10880;50.302;18.736;2022-08-19T03:18:49;2.97;;;2.70;;
21438;SDS011;10880;50.302;18.736;2022-08-19T03:21:17;3.00;;;2.70;;
21438;SDS011;10880;50.302;18.736;2022-08-19T03:23:46;2.90;;;2.70;;
21438;SDS011;10880;50.302;18.736;2022-08-19T03:26:12;2.70;;;2.50;;
21438;SDS011;10880;50.302;18.736;2022-08-19T03:28:41;3.00;;;2.70;;
21438;SDS011;10880;50.302;18.736;2022-08-19T03:31:10;3.08;;;2.80;;
21438;SDS011;10880;50.302;18.736;2022-08-19T03:33:38;2.85;;;2.55;;
21438;SDS011;10880;50.302;18.736;2022-08-19T03:36:06;2.80;;;2.60;;
21438;SDS011;10880;50.302;18.736;2022-08-19T03:38:39;2.78;;;2.58;;
21438;SDS011;10880;50.302;18.736;2022-08-19T03:41:10;2.83;;;2.60;;
21438;SDS011;10880;50.302;18.736;2022-08-19T03:43:41;3.30;;;2.70;;
21438;SDS011;10880;50.302;18.736;2022-08-19T03:46:09;3.10;;;2.80;;
21438;SDS011;10880;50.302;18.736;2022-08-19T03:48:38;2.95;;;2.65;;
21438;SDS011;10880;50.302;18.736;2022-08-19T03:51:06;3.30;;;3.00;;
21438;SDS011;10880;50.302;18.736;2022-08-19T03:53:33;2.83;;;2.63;;
21438;SDS011;10880;50.302;18.736;2022-08-19T03:56:01;3.90;;;2.90;;
21438;SDS011;10880;50.302;18.736;2022-08-19T03:58:29;2.88;;;2.67;;
21438;SDS011;10880;50.302;18.736;2022-08-19T04:00:56;3.10;;;2.80;;
21438;SDS011;10880;50.302;18.736;2022-08-19T04:03:25;3.10;;;2.80;;
21438;SDS011;10880;50.302;18.736;2022-08-19T04:05:53;2.77;;;2.57;;
21438;SDS011;10880;50.302;18.736;2022-08-19T04:08:19;2.93;;;2.63;;
21438;SDS011;10880;50.302;18.736;2022-08-19T04:10:49;2.80;;;2.60;;
21438;SDS011;10880;50.302;18.736;2022-08-19T04:13:16;3.10;;;2.80;;
21438;SDS011;10880;50.302;18.736;2022-08-19T04:15:44;2.93;;;2.73;;
21438;SDS011;10880;50.302;18.736;2022-08-19T04:18:12;2.77;;;2.53;;
21438;SDS011;10880;50.302;18.736;2022-08-19T04:20:43;2.77;;;2.57;;
21438;SDS011;10880;50.302;18.736;2022-08-19T04:23:13;3.00;;;2.63;;
21438;SDS011;10880;50.302;18.736;2022-08-19T04:25:41;2.77;;;2.53;;
21438;SDS011;10880;50.302;18.736;2022-08-19T04:28:15;3.17;;;2.87;;
21438;SDS011;10880;50.302;18.736;2022-08-19T04:30:43;3.00;;;2.80;;
21438;SDS011;10880;50.302;18.736;2022-08-19T04:33:14;3.30;;;3.00;;
21438;SDS011;10880;50.302;18.736;2022-08-19T04:35:47;4.03;;;3.13;;
21438;SDS011;10880;50.302;18.736;2022-08-19T04:38:19;3.30;;;3.00;;
21438;SDS011;10880;50.302;18.736;2022-08-19T04:40:49;3.10;;;2.80;;
21438;SDS011;10880;50.302;18.736;2022-08-19T04:43:35;3.22;;;2.85;;
21438;SDS011;10880;50.302;18.736;2022-08-19T04:46:09;3.17;;;2.88;;
21438;SDS011;10880;50.302;18.736;2022-08-19T04:48:38;2.65;;;2.45;;
21438;SDS011;10880;50.302;18.736;2022-08-19T04:51:09;2.80;;;2.60;;
21438;SDS011;10880;50.302;18.736;2022-08-19T04:53:40;3.03;;;2.70;;
21438;SDS011;10880;50.302;18.736;2022-08-19T04:56:13;3.05;;;2.72;;
21438;SDS011;10880;50.302;18.736;2022-08-19T04:58:43;4.13;;;3.30;;
21438;SDS011;10880;50.302;18.736;2022-08-19T05:01:17;3.40;;;3.10;;
21438;SDS011;10880;50.302;18.736;2022-08-19T05:03:45;3.17;;;2.88;;
21438;SDS011;10880;50.302;18.736;2022-08-19T05:06:12;3.43;;;3.13;;
21438;SDS011;10880;50.302;18.736;2022-08-19T05:08:41;3.03;;;2.73;;
21438;SDS011;10880;50.302;18.736;2022-08-19T05:11:12;2.90;;;2.70;;
21438;SDS011;10880;50.302;18.736;2022-08-19T05:13:38;3.08;;;2.78;;
21438;SDS011;10880;50.302;18.736;2022-08-19T05:16:07;3.15;;;2.85;;
21438;SDS011;10880;50.302;18.736;2022-08-19T05:18:34;2.83;;;2.63;;
21438;SDS011;10880;50.302;18.736;2022-08-19T05:21:20;3.35;;;2.80;;
21438;SDS011;10880;50.302;18.736;2022-08-19T05:24:06;3.22;;;2.92;;
21438;SDS011;10880;50.302;18.736;2022-08-19T05:26:37;3.78;;;3.45;;
21438;SDS011;10880;50.302;18.736;2022-08-19T05:29:08;3.28;;;2.97;;
21438;SDS011;10880;50.302;18.736;2022-08-19T05:31:36;3.00;;;2.70;;
21438;SDS011;10880;50.302;18.736;2022-08-19T05:34:04;2.92;;;2.72;;
21438;SDS011;10880;50.302;18.736;2022-08-19T05:36:36;2.90;;;2.60;;
21438;SDS011;10880;50.302;18.736;2022-08-19T05:39:06;4.43;;;2.80;;
21438;SDS011;10880;50.302;18.736;2022-08-19T05:41:34;4.65;;;2.50;;
21438;SDS011;10880;50.302;18.736;2022-08-19T05:44:02;2.80;;;2.60;;
21438;SDS011;10880;50.302;18.736;2022-08-19T05:46:34;2.90;;;2.70;;
21438;SDS011;10880;50.302;18.736;2022-08-19T05:49:03;3.63;;;2.80;;
21438;SDS011;10880;50.302;18.736;2022-08-19T05:51:34;3.10;;;2.80;;
21438;SDS011;10880;50.302;18.736;2022-08-19T05:54:05;3.22;;;2.58;;
21438;SDS011;10880;50.302;18.736;2022-08-19T05:56:37;3.73;;;2.90;;
21438;SDS011;10880;50.302;18.736;2022-08-19T05:59:11;2.95;;;2.65;;
21438;SDS011;10880;50.302;18.736;2022-08-19T06:01:38;3.10;;;2.80;;
21438;SDS011;10880;50.302;18.736;2022-08-19T06:04:05;4.68;;;2.78;;
21438;SDS011;10880;50.302;18.736;2022-08-19T06:06:32;3.40;;;3.10;;
21438;SDS011;10880;50.302;18.736;2022-08-19T06:09:01;3.60;;;3.30;;
21438;SDS011;10880;50.302;18.736;2022-08-19T06:11:37;3.47;;;2.90;;
21438;SDS011;10880;50.302;18.736;2022-08-19T06:14:17;2.85;;;2.65;;
21438;SDS011;10880;50.302;18.736;2022-08-19T06:16:46;2.63;;;2.42;;
21438;SDS011;10880;50.302;18.736;2022-08-19T06:19:14;2.58;;;2.38;;
21438;SDS011;10880;50.302;18.736;2022-08-19T06:21:44;3.15;;;2.67;;
21438;SDS011;10880;50.302;18.736;2022-08-19T06:24:18;2.80;;;2.60;;
21438;SDS011;10880;50.302;18.736;2022-08-19T06:26:47;2.78;;;2.58;;
21438;SDS011;10880;50.302;18.736;2022-08-19T06:29:15;3.30;;;3.00;;
21438;SDS011;10880;50.302;18.736;2022-08-19T06:31:44;2.47;;;2.28;;
21438;SDS011;10880;50.302;18.736;2022-08-19T06:34:14;2.95;;;2.75;;
21438;SDS011;10880;50.302;18.736;2022-08-19T06:36:42;2.83;;;2.63;;
21438;SDS011;10880;50.302;18.736;2022-08-19T06:39:13;3.47;;;2.90;;
21438;SDS011;10880;50.302;18.736;2022-08-19T06:41:44;4.30;;;3.25;;
21438;SDS011;10880;50.302;18.736;2022-08-19T06:44:17;3.42;;;3.13;;
21438;SDS011;10880;50.302;18.736;2022-08-19T06:46:44;2.95;;;2.75;;
21438;SDS011;10880;50.302;18.736;2022-08-19T06:49:10;3.30;;;3.00;;
21438;SDS011;10880;50.302;18.736;2022-08-19T06:51:40;4.10;;;3.70;;
21438;SDS011;10880;50.302;18.736;2022-08-19T06:54:09;4.18;;;3.78;;
21438;SDS011;10880;50.302;18.736;2022-08-19T06:56:36;3.30;;;3.00;;
21438;SDS011;10880;50.302;18.736;2022-08-19T06:59:17;3.17;;;2.85;;
21438;SDS011;10880;50.302;18.736;2022-08-19T07:01:50;2.63;;;2.42;;
21438;SDS011;10880;50.302;18.736;2022-08-19T07:04:19;3.20;;;2.90;;
21438;SDS011;10880;50.302;18.736;2022-08-19T07:06:52;3.28;;;2.97;;
21438;SDS011;10880;50.302;18.736;2022-08-19T07:09:24;3.42;;;3.13;;
21438;SDS011;10880;50.302;18.736;2022-08-19T07:11:51;2.80;;;2.60;;
21438;SDS011;10880;50.302;18.736;2022-08-19T07:14:20;3.60;;;3.30;;
21438;SDS011;10880;50.302;18.736;2022-08-19T07:16:50;3.65;;;3.17;;
21438;SDS011;10880;50.302;18.736;2022-08-19T07:19:19;3.35;;;3.05;;
21438;SDS011;10880;50.302;18.736;2022-08-19T07:21:46;3.03;;;2.75;;
21438;SDS011;10880;50.302;18.736;2022-08-19T07:24:14;3.70;;;2.53;;
21438;SDS011;10880;50.302;18.736;2022-08-19T07:26:42;5.03;;;3.00;;
21438;SDS011;10880;50.302;18.736;2022-08-19T07:29:10;4.78;;;3.95;;
21438;SDS011;10880;50.302;18.736;2022-08-19T07:31:37;4.00;;;3.60;;
21438;SDS011;10880;50.302;18.736;2022-08-19T07:34:04;3.85;;;3.53;;
21438;SDS011;10880;50.302;18.736;2022-08-19T07:36:34;3.70;;;3.40;;
21438;SDS011;10880;50.302;18.736;2022-08-19T07:39:05;3.50;;;3.20;;
21438;SDS011;10880;50.302;18.736;2022-08-19T07:41:37;3.55;;;3.17;;
21438;SDS011;10880;50.302;18.736;2022-08-19T07:44:05;2.85;;;2.60;;
21438;SDS011;10880;50.302;18.736;2022-08-19T07:46:33;3.70;;;3.35;;
21438;SDS011;10880;50.302;18.736;2022-08-19T07:49:01;4.00;;;3.60;;
21438;SDS011;10880;50.302;18.736;2022-08-19T07:51:29;3.13;;;2.83;;
21438;SDS011;10880;50.302;18.736;2022-08-19T07:53:58;3.78;;;3.47;;
21438;SDS011;10880;50.302;18.736;2022-08-19T07:56:27;6.47;;;4.80;;
21438;SDS011;10880;50.302;18.736;2022-08-19T07:58:53;4.50;;;4.10;;
21438;SDS011;10880;50.302;18.736;2022-08-19T08:01:23;4.00;;;3.17;;
21438;SDS011;10880;50.302;18.736;2022-08-19T08:03:55;4.10;;;3.60;;
21438;SDS011;10880;50.302;18.736;2022-08-19T08:06:41;4.00;;;3.35;;
21438;SDS011;10880;50.302;18.736;2022-08-19T08:09:29;3.90;;;3.50;;
21438;SDS011;10880;50.302;18.736;2022-08-19T08:12:03;4.00;;;3.40;;
21438;SDS011;10880;50.302;18.736;2022-08-19T08:14:37;3.10;;;2.80;;
21438;SDS011;10880;50.302;18.736;2022-08-19T08:17:06;3.97;;;3.58;;
21438;SDS011;10880;50.302;18.736;2022-08-19T08:19:34;3.92;;;3.42;;
21438;SDS011;10880;50.302;18.736;2022-08-19T08:22:01;3.33;;;3.03;;
21438;SDS011;10880;50.302;18.736;2022-08-19T08:24:32;3.10;;;2.80;;
21438;SDS011;10880;50.302;18.736;2022-08-19T08:27:01;3.08;;;2.75;;
21438;SDS011;10880;50.302;18.736;2022-08-19T08:29:28;3.58;;;3.28;;
21438;SDS011;10880;50.302;18.736;2022-08-19T08:31:56;3.03;;;2.83;;
21438;SDS011;10880;50.302;18.736;2022-08-19T08:34:23;3.40;;;3.10;;
21438;SDS011;10880;50.302;18.736;2022-08-19T08:36:50;3.80;;;2.80;;
21438;SDS011;10880;50.302;18.736;2022-08-19T08:39:19;4.00;;;3.22;;
21438;SDS011;10880;50.302;18.736;2022-08-19T08:42:13;5.22;;;3.47;;
21438;SDS011;10880;50.302;18.736;2022-08-19T08:45:02;3.22;;;2.92;;
21438;SDS011;10880;50.302;18.736;2022-08-19T08:47:41;3.10;;;2.80;;
21438;SDS011;10880;50.302;18.736;2022-08-19T08:50:13;2.63;;;2.42;;
21438;SDS011;10880;50.302;18.736;2022-08-19T08:52:45;2.40;;;2.20;;
21438;SDS011;10880;50.302;18.736;2022-08-19T08:55:15;2.70;;;2.47;;
21438;SDS011;10880;50.302;18.736;2022-08-19T09:00:15;3.70;;;2.83;;
21438;SDS011;10880;50.302;18.736;2022-08-19T09:02:55;2.78;;;2.42;;
21438;SDS011;10880;50.302;18.736;2022-08-19T09:05:25;2.63;;;2.42;;
21438;SDS011;10880;50.302;18.736;2022-08-19T09:08:07;2.85;;;2.65;;
21438;SDS011;10880;50.302;18.736;2022-08-19T09:10:43;3.50;;;3.20;;
21438;SDS011;10880;50.302;18.736;2022-08-19T09:15:52;4.30;;;3.28;;
21438;SDS011;10880;50.302;18.736;2022-08-19T09:18:23;2.92;;;2.72;;
21438;SDS011;10880;50.302;18.736;2022-08-19T09:20:49;2.72;;;2.53;;
21438;SDS011;10880;50.302;18.736;2022-08-19T09:23:16;2.70;;;2.30;;
21438;SDS011;10880;50.302;18.736;2022-08-19T09:25:42;2.75;;;2.55;;
21438;SDS011;10880;50.302;18.736;2022-08-19T09:28:12;2.60;;;2.40;;
21438;SDS011;10880;50.302;18.736;2022-08-19T09:30:40;3.50;;;3.20;;
21438;SDS011;10880;50.302;18.736;2022-08-19T09:33:07;2.78;;;2.58;;
21438;SDS011;10880;50.302;18.736;2022-08-19T09:35:34;2.70;;;2.50;;
21438;SDS011;10880;50.302;18.736;2022-08-19T09:38:01;2.60;;;2.33;;
21438;SDS011;10880;50.302;18.736;2022-08-19T09:40:28;2.28;;;2.10;;
21438;SDS011;10880;50.302;18.736;2022-08-19T09:42:55;4.45;;;2.70;;
21438;SDS011;10880;50.302;18.736;2022-08-19T09:45:23;2.53;;;2.33;;
21438;SDS011;10880;50.302;18.736;2022-08-19T09:47:51;5.43;;;2.70;;
21438;SDS011;10880;50.302;18.736;2022-08-19T09:50:18;2.63;;;2.42;;
21438;SDS011;10880;50.302;18.736;2022-08-19T09:52:45;3.05;;;2.75;;
21438;SDS011;10880;50.302;18.736;2022-08-19T09:55:12;2.45;;;2.25;;
21438;SDS011;10880;50.302;18.736;2022-08-19T09:57:38;2.80;;;2.60;;
21438;SDS011;10880;50.302;18.736;2022-08-19T10:00:06;2.35;;;2.15;;
21438;SDS011;10880;50.302;18.736;2022-08-19T10:02:34;3.15;;;2.70;;
21438;SDS011;10880;50.302;18.736;2022-08-19T10:05:01;2.78;;;2.55;;
21438;SDS011;10880;50.302;18.736;2022-08-19T10:07:47;3.25;;;2.90;;
21438;SDS011;10880;50.302;18.736;2022-08-19T10:10:13;3.05;;;2.85;;
21438;SDS011;10880;50.302;18.736;2022-08-19T10:12:41;3.25;;;2.95;;
21438;SDS011;10880;50.302;18.736;2022-08-19T10:15:08;4.30;;;2.90;;
21438;SDS011;10880;50.302;18.736;2022-08-19T10:17:35;3.38;;;3.08;;
21438;SDS011;10880;50.302;18.736;2022-08-19T10:20:02;3.60;;;3.30;;
21438;SDS011;10880;50.302;18.736;2022-08-19T10:22:31;3.75;;;2.95;;
21438;SDS011;10880;50.302;18.736;2022-08-19T10:24:57;3.40;;;3.10;;
21438;SDS011;10880;50.302;18.736;2022-08-19T10:27:24;2.70;;;2.50;;
21438;SDS011;10880;50.302;18.736;2022-08-19T10:29:50;2.70;;;2.50;;
21438;SDS011;10880;50.302;18.736;2022-08-19T10:32:17;2.88;;;2.67;;
21438;SDS011;10880;50.302;18.736;2022-08-19T10:34:44;3.30;;;3.00;;
21438;SDS011;10880;50.302;18.736;2022-08-19T10:37:10;3.38;;;2.85;;
21438;SDS011;10880;50.302;18.736;2022-08-19T10:39:36;3.10;;;2.80;;
21438;SDS011;10880;50.302;18.736;2022-08-19T10:42:05;2.97;;;2.63;;
21438;SDS011;10880;50.302;18.736;2022-08-19T10:44:32;3.05;;;2.65;;
21438;SDS011;10880;50.302;18.736;2022-08-19T10:47:01;4.03;;;3.03;;
21438;SDS011;10880;50.302;18.736;2022-08-19T10:49:29;3.67;;;3.03;;
21438;SDS011;10880;50.302;18.736;2022-08-19T10:51:56;2.50;;;2.30;;
21438;SDS011;10880;50.302;18.736;2022-08-19T10:54:41;2.80;;;2.47;;
21438;SDS011;10880;50.302;18.736;2022-08-19T10:57:25;3.13;;;2.90;;
21438;SDS011;10880;50.302;18.736;2022-08-19T10:59:56;3.70;;;2.55;;
21438;SDS011;10880;50.302;18.736;2022-08-19T11:02:23;2.60;;;2.40;;
21438;SDS011;10880;50.302;18.736;2022-08-19T11:04:49;5.38;;;3.30;;
21438;SDS011;10880;50.302;18.736;2022-08-19T11:09:49;3.25;;;2.70;;
21438;SDS011;10880;50.302;18.736;2022-08-19T11:12:15;2.97;;;2.70;;
21438;SDS011;10880;50.302;18.736;2022-08-19T11:14:42;2.75;;;2.55;;
21438;SDS011;10880;50.302;18.736;2022-08-19T11:17:09;2.15;;;2.00;;
21438;SDS011;10880;50.302;18.736;2022-08-19T11:19:39;2.95;;;2.30;;
21438;SDS011;10880;50.302;18.736;2022-08-19T11:22:07;2.67;;;2.47;;
21438;SDS011;10880;50.302;18.736;2022-08-19T11:24:35;2.70;;;2.50;;
21438;SDS011;10880;50.302;18.736;2022-08-19T11:27:04;2.25;;;2.05;;
21438;SDS011;10880;50.302;18.736;2022-08-19T11:29:33;2.25;;;2.00;;
21438;SDS011;10880;50.302;18.736;2022-08-19T11:32:03;3.58;;;2.38;;
21438;SDS011;10880;50.302;18.736;2022-08-19T11:34:31;2.10;;;1.90;;
21438;SDS011;10880;50.302;18.736;2022-08-19T11:36:58;2.17;;;1.98;;
21438;SDS011;10880;50.302;18.736;2022-08-19T11:39:26;1.95;;;1.80;;
21438;SDS011;10880;50.302;18.736;2022-08-19T11:41:55;3.75;;;1.80;;
21438;SDS011;10880;50.302;18.736;2022-08-19T11:44:23;3.22;;;2.60;;
21438;SDS011;10880;50.302;18.736;2022-08-19T11:46:49;2.40;;;1.95;;
21438;SDS011;10880;50.302;18.736;2022-08-19T11:49:17;2.30;;;2.10;;
21438;SDS011;10880;50.302;18.736;2022-08-19T11:51:45;2.40;;;2.20;;
21438;SDS011;10880;50.302;18.736;2022-08-19T11:54:16;3.75;;;2.55;;
21438;SDS011;10880;50.302;18.736;2022-08-19T11:56:43;2.58;;;2.13;;
21438;SDS011;10880;50.302;18.736;2022-08-19T11:59:11;2.35;;;2.15;;
21438;SDS011;10880;50.302;18.736;2022-08-19T12:01:38;2.42;;;1.95;;
21438;SDS011;10880;50.302;18.736;2022-08-19T12:04:06;2.22;;;2.00;;
21438;SDS011;10880;50.302;18.736;2022-08-19T12:06:32;2.05;;;1.90;;
21438;SDS011;10880;50.302;18.736;2022-08-19T12:09:07;3.20;;;2.33;;
21438;SDS011;10880;50.302;18.736;2022-08-19T12:11:35;2.17;;;1.98;;
21438;SDS011;10880;50.302;18.736;2022-08-19T12:14:02;3.03;;;2.70;;
21438;SDS011;10880;50.302;18.736;2022-08-19T12:16:34;2.70;;;2.20;;
21438;SDS011;10880;50.302;18.736;2022-08-19T12:19:00;4.00;;;2.40;;
21438;SDS011;10880;50.302;18.736;2022-08-19T12:21:33;3.15;;;2.33;;
21438;SDS011;10880;50.302;18.736;2022-08-19T12:24:01;2.42;;;2.22;;
21438;SDS011;10880;50.302;18.736;2022-08-19T12:26:29;2.55;;;2.35;;
21438;SDS011;10880;50.302;18.736;2022-08-19T12:28:57;4.43;;;2.67;;
21438;SDS011;10880;50.302;18.736;2022-08-19T12:31:26;2.90;;;2.30;;
21438;SDS011;10880;50.302;18.736;2022-08-19T12:33:54;4.10;;;2.80;;
21438;SDS011;10880;50.302;18.736;2022-08-19T12:36:20;2.45;;;2.00;;
21438;SDS011;10880;50.302;18.736;2022-08-19T12:38:48;2.17;;;1.98;;
21438;SDS011;10880;50.302;18.736;2022-08-19T12:41:15;2.20;;;2.00;;
21438;SDS011;10880;50.302;18.736;2022-08-19T12:43:44;3.08;;;2.40;;
21438;SDS011;10880;50.302;18.736;2022-08-19T12:46:11;2.25;;;2.05;;
21438;SDS011;10880;50.302;18.736;2022-08-19T12:48:38;2.03;;;1.80;;
21438;SDS011;10880;50.302;18.736;2022-08-19T12:51:09;2.10;;;1.90;;
21438;SDS011;10880;50.302;18.736;2022-08-19T12:53:38;2.25;;;1.70;;
21438;SDS011;10880;50.302;18.736;2022-08-19T12:56:06;2.00;;;1.80;;
21438;SDS011;10880;50.302;18.736;2022-08-19T12:58:33;2.10;;;1.90;;
21438;SDS011;10880;50.302;18.736;2022-08-19T13:01:14;1.70;;;1.60;;
21438;SDS011;10880;50.302;18.736;2022-08-19T13:03:44;2.97;;;1.77;;
21438;SDS011;10880;50.302;18.736;2022-08-19T13:06:12;1.92;;;1.83;;
21438;SDS011;10880;50.302;18.736;2022-08-19T13:08:39;2.15;;;1.95;;
21438;SDS011;10880;50.302;18.736;2022-08-19T13:11:09;1.92;;;1.80;;
21438;SDS011;10880;50.302;18.736;2022-08-19T13:13:38;2.10;;;1.90;;
21438;SDS011;10880;50.302;18.736;2022-08-19T13:16:10;2.95;;;2.30;;
21438;SDS011;10880;50.302;18.736;2022-08-19T13:18:38;1.60;;;1.50;;
21438;SDS011;10880;50.302;18.736;2022-08-19T13:21:05;2.30;;;2.10;;
21438;SDS011;10880;50.302;18.736;2022-08-19T13:23:34;2.05;;;1.88;;
21438;SDS011;10880;50.302;18.736;2022-08-19T13:26:05;2.03;;;1.85;;
21438;SDS011;10880;50.302;18.736;2022-08-19T13:28:33;1.90;;;1.80;;
21438;SDS011;10880;50.302;18.736;2022-08-19T13:31:19;1.98;;;1.80;;
21438;SDS011;10880;50.302;18.736;2022-08-19T13:34:06;1.92;;;1.73;;
21438;SDS011;10880;50.302;18.736;2022-08-19T13:36:33;1.60;;;1.50;;
21438;SDS011;10880;50.302;18.736;2022-08-19T13:39:01;2.53;;;1.90;;
21438;SDS011;10880;50.302;18.736;2022-08-19T13:41:27;2.10;;;1.80;;
21438;SDS011;10880;50.302;18.736;2022-08-19T13:43:57;1.80;;;1.70;;
21438;SDS011;10880;50.302;18.736;2022-08-19T13:46:23;1.60;;;1.50;;
21438;SDS011;10880;50.302;18.736;2022-08-19T13:48:49;3.22;;;2.15;;
21438;SDS011;10880;50.302;18.736;2022-08-19T13:51:17;2.45;;;2.00;;
21438;SDS011;10880;50.302;18.736;2022-08-19T13:53:44;2.33;;;1.92;;
21438;SDS011;10880;50.302;18.736;2022-08-19T13:56:12;2.25;;;2.05;;
21438;SDS011;10880;50.302;18.736;2022-08-19T13:58:40;1.83;;;1.70;;
21438;SDS011;10880;50.302;18.736;2022-08-19T14:01:07;3.53;;;2.00;;
21438;SDS011;10880;50.302;18.736;2022-08-19T14:03:34;1.77;;;1.67;;
21438;SDS011;10880;50.302;18.736;2022-08-19T14:06:02;2.28;;;2.08;;
21438;SDS011;10880;50.302;18.736;2022-08-19T14:08:28;2.10;;;1.90;;
21438;SDS011;10880;50.302;18.736;2022-08-19T14:10:58;1.75;;;1.65;;
21438;SDS011;10880;50.302;18.736;2022-08-19T14:13:25;1.63;;;1.50;;
21438;SDS011;10880;50.302;18.736;2022-08-19T14:15:52;1.50;;;1.35;;
21438;SDS011;10880;50.302;18.736;2022-08-19T14:18:19;1.55;;;1.40;;
21438;SDS011;10880;50.302;18.736;2022-08-19T14:20:46;1.80;;;1.70;;
21438;SDS011;10880;50.302;18.736;2022-08-19T14:23:12;1.50;;;1.40;;
21438;SDS011;10880;50.302;18.736;2022-08-19T14:25:39;1.63;;;1.52;;
21438;SDS011;10880;50.302;18.736;2022-08-19T14:28:06;1.70;;;1.60;;
21438;SDS011;10880;50.302;18.736;2022-08-19T14:30:34;1.40;;;1.30;;
21438;SDS011;10880;50.302;18.736;2022-08-19T14:33:04;2.10;;;1.90;;
21438;SDS011;10880;50.302;18.736;2022-08-19T14:35:31;2.20;;;1.58;;
21438;SDS011;10880;50.302;18.736;2022-08-19T14:38:03;1.63;;;1.48;;
21438;SDS011;10880;50.302;18.736;2022-08-19T14:40:31;2.25;;;1.50;;
21438;SDS011;10880;50.302;18.736;2022-08-19T14:43:00;1.55;;;1.45;;
21438;SDS011;10880;50.302;18.736;2022-08-19T14:45:34;1.60;;;1.50;;
21438;SDS011;10880;50.302;18.736;2022-08-19T14:48:03;1.50;;;1.40;;
21438;SDS011;10880;50.302;18.736;2022-08-19T14:50:30;1.45;;;1.27;;
21438;SDS011;10880;50.302;18.736;2022-08-19T14:52:58;1.65;;;1.42;;
21438;SDS011;10880;50.302;18.736;2022-08-19T14:55:26;1.50;;;1.40;;
21438;SDS011;10880;50.302;18.736;2022-08-19T14:57:52;1.30;;;1.20;;
21438;SDS011;10880;50.302;18.736;2022-08-19T15:00:19;1.45;;;1.20;;
21438;SDS011;10880;50.302;18.736;2022-08-19T15:02:46;1.30;;;1.20;;